Time;durP1;ratioP1;P1;durP2;ratioP2;P2;SDS_P1;SDS_P2;PMS_P1;PMS_P2;Temp;Humidity;BMP_temperature;BMP_pressure;BME280_temperature;BME280_humidity;BME280_pressure;Samples;Min_cycle;Max_cycle;Signal;HPM_P1;HPM_P2
2022/08/08 00:01:04;;;;;;;3.80;2.17;;;;;;;;;;5092938;28;20449;-79
2022/08/08 00:03:42;;;;;;;4.03;2.23;;;;;;;;;;5091599;28;20435;-79
2022/08/08 00:06:13;;;;;;;3.93;2.50;;;;;;;;;;5093457;28;20466;-80
2022/08/08 00:08:42;;;;;;;4.20;2.30;;;;;;;;;;5091732;28;20450;-80
2022/08/08 00:11:14;;;;;;;2.63;2.13;;;;;;;;;;5095131;28;20442;-81
2022/08/08 00:13:44;;;;;;;2.77;2.40;;;;;;;;;;5093464;28;20792;-78
2022/08/08 00:16:13;;;;;;;2.30;2.10;;;;;;;;;;5090128;28;20467;-79
2022/08/08 00:18:46;;;;;;;3.50;2.17;;;;;;;;;;5090785;28;20482;-79
2022/08/08 00:21:16;;;;;;;2.70;2.43;;;;;;;;;;5092506;28;20418;-78
2022/08/08 00:23:45;;;;;;;2.83;2.30;;;;;;;;;;5092537;28;20777;-79
2022/08/08 00:26:16;;;;;;;3.40;2.33;;;;;;;;;;5092421;28;20446;-76
2022/08/08 00:28:45;;;;;;;2.50;2.27;;;;;;;;;;5093157;28;20910;-78
2022/08/08 00:31:15;;;;;;;2.20;2.00;;;;;;;;;;5093292;28;20476;-77
2022/08/08 00:33:46;;;;;;;2.67;2.47;;;;;;;;;;5094617;28;20413;-79
2022/08/08 00:36:16;;;;;;;4.60;2.10;;;;;;;;;;5091019;28;20451;-78
2022/08/08 00:38:47;;;;;;;3.27;2.50;;;;;;;;;;5089906;28;20471;-81
2022/08/08 00:41:24;;;;;;;2.53;2.20;;;;;;;;;;5091026;28;20420;-80
2022/08/08 00:44:06;;;;;;;3.10;2.80;;;;;;;;;;5092244;28;20421;-79
2022/08/08 00:46:45;;;;;;;2.87;2.20;;;;;;;;;;5091859;28;20458;-78
2022/08/08 00:49:20;;;;;;;3.10;2.67;;;;;;;;;;5092878;28;20419;-78
2022/08/08 00:51:56;;;;;;;3.43;2.37;;;;;;;;;;5091719;28;20413;-77
2022/08/08 00:54:34;;;;;;;2.50;2.27;;;;;;;;;;5094147;28;20504;-79
2022/08/08 00:57:14;;;;;;;2.90;2.47;;;;;;;;;;5094145;28;20788;-79
2022/08/08 00:59:55;;;;;;;3.60;2.50;;;;;;;;;;5089629;28;20475;-77
2022/08/08 01:02:37;;;;;;;3.17;2.33;;;;;;;;;;5089195;28;20437;-79
2022/08/08 01:05:12;;;;;;;3.40;2.43;;;;;;;;;;5091397;28;20419;-79
2022/08/08 01:07:47;;;;;;;2.90;2.60;;;;;;;;;;5091677;28;20433;-79
2022/08/08 01:10:30;;;;;;;3.50;2.73;;;;;;;;;;5091637;28;20415;-77
2022/08/08 01:13:09;;;;;;;3.97;2.60;;;;;;;;;;5091110;28;20421;-78
2022/08/08 01:15:51;;;;;;;2.70;2.50;;;;;;;;;;5092795;28;20549;-79
2022/08/08 01:18:27;;;;;;;2.97;2.37;;;;;;;;;;5093701;28;20437;-78
2022/08/08 01:21:07;;;;;;;2.60;2.40;;;;;;;;;;5090121;28;20974;-79
2022/08/08 01:23:46;;;;;;;2.83;2.53;;;;;;;;;;5089217;28;20763;-78
2022/08/08 01:26:23;;;;;;;3.20;2.67;;;;;;;;;;5090702;28;20457;-78
2022/08/08 01:29:05;;;;;;;3.17;2.63;;;;;;;;;;5089885;28;20509;-79
2022/08/08 01:31:44;;;;;;;3.90;3.00;;;;;;;;;;5091477;28;20524;-80
2022/08/08 01:34:26;;;;;;;2.80;2.43;;;;;;;;;;5092108;28;20645;-79
2022/08/08 01:37:10;;;;;;;3.83;2.93;;;;;;;;;;5091297;28;20443;-80
2022/08/08 01:39:45;;;;;;;4.30;3.40;;;;;;;;;;5094182;28;20457;-81
2022/08/08 01:42:16;;;;;;;2.57;2.37;;;;;;;;;;5092459;28;20451;-78
2022/08/08 01:44:53;;;;;;;2.53;2.33;;;;;;;;;;5087746;28;20412;-79
2022/08/08 01:47:24;;;;;;;5.53;2.80;;;;;;;;;;5089314;28;20500;-77
2022/08/08 01:49:55;;;;;;;6.53;3.03;;;;;;;;;;5090922;28;20570;-79
2022/08/08 01:52:33;;;;;;;4.13;2.80;;;;;;;;;;5091157;28;20520;-78
2022/08/08 01:55:07;;;;;;;2.97;2.67;;;;;;;;;;5091233;28;20415;-78
2022/08/08 01:57:38;;;;;;;4.53;2.60;;;;;;;;;;5091355;28;20532;-78
2022/08/08 02:00:14;;;;;;;6.40;2.97;;;;;;;;;;5091893;28;20556;-77
2022/08/08 02:02:49;;;;;;;3.67;2.40;;;;;;;;;;5093308;28;20470;-77
2022/08/08 02:05:25;;;;;;;3.63;3.13;;;;;;;;;;5090667;28;20444;-77
2022/08/08 02:08:03;;;;;;;3.30;3.00;;;;;;;;;;5088336;28;21421;-80
2022/08/08 02:10:35;;;;;;;3.17;2.87;;;;;;;;;;5090044;28;20784;-76
2022/08/08 02:13:05;;;;;;;3.90;2.77;;;;;;;;;;5089411;28;20442;-77
2022/08/08 02:15:35;;;;;;;5.90;3.60;;;;;;;;;;5090974;28;20447;-79
2022/08/08 02:18:07;;;;;;;3.93;3.07;;;;;;;;;;5090154;28;20472;-77
2022/08/08 02:20:36;;;;;;;3.50;3.03;;;;;;;;;;5090075;28;20825;-76
2022/08/08 02:23:09;;;;;;;3.33;3.03;;;;;;;;;;5093037;28;20828;-80
2022/08/08 02:25:41;;;;;;;3.97;3.10;;;;;;;;;;5092819;28;20516;-80
2022/08/08 02:28:11;;;;;;;4.43;3.40;;;;;;;;;;5089359;28;20407;-80
2022/08/08 02:30:46;;;;;;;4.80;3.30;;;;;;;;;;5087166;28;20432;-79
2022/08/08 02:33:19;;;;;;;4.50;3.43;;;;;;;;;;5093758;28;20511;-79
2022/08/08 02:35:53;;;;;;;3.50;3.20;;;;;;;;;;5094274;28;20443;-79
2022/08/08 02:38:29;;;;;;;3.80;3.17;;;;;;;;;;5094849;28;20445;-82
2022/08/08 02:41:09;;;;;;;3.87;3.10;;;;;;;;;;5095106;28;20485;-78
2022/08/08 02:43:46;;;;;;;5.67;3.40;;;;;;;;;;5095187;28;20467;-80
2022/08/08 02:46:21;;;;;;;3.30;2.90;;;;;;;;;;5096701;28;20476;-78
2022/08/08 02:49:00;;;;;;;3.97;3.47;;;;;;;;;;5096403;28;20417;-79
2022/08/08 02:51:41;;;;;;;6.20;3.33;;;;;;;;;;5091783;28;20864;-79
2022/08/08 02:54:19;;;;;;;6.83;3.53;;;;;;;;;;5092633;28;20445;-80
2022/08/08 02:56:56;;;;;;;3.20;2.90;;;;;;;;;;5094279;28;20863;-80
2022/08/08 02:59:39;;;;;;;3.50;3.10;;;;;;;;;;5094222;28;20439;-78
2022/08/08 03:02:20;;;;;;;3.37;3.07;;;;;;;;;;5094182;28;20527;-78
2022/08/08 03:04:56;;;;;;;4.07;3.23;;;;;;;;;;5094328;28;20437;-77
2022/08/08 03:07:34;;;;;;;4.60;3.77;;;;;;;;;;5095523;28;20865;-79
2022/08/08 03:10:22;;;;;;;3.80;3.33;;;;;;;;;;5096402;28;20538;-78
2022/08/08 03:12:56;;;;;;;4.43;4.00;;;;;;;;;;5092504;28;20800;-79
2022/08/08 03:15:34;;;;;;;4.90;4.10;;;;;;;;;;5091528;28;20422;-78
2022/08/08 03:18:06;;;;;;;4.57;3.73;;;;;;;;;;5093490;28;20543;-80
2022/08/08 03:20:49;;;;;;;3.90;3.60;;;;;;;;;;5093589;28;20475;-80
2022/08/08 03:23:18;;;;;;;5.17;4.00;;;;;;;;;;5093006;28;20447;-80
2022/08/08 03:25:47;;;;;;;4.37;3.97;;;;;;;;;;5093813;28;20478;-78
2022/08/08 03:28:16;;;;;;;5.17;3.70;;;;;;;;;;5093093;28;20463;-79
2022/08/08 03:30:44;;;;;;;4.00;3.60;;;;;;;;;;5096292;28;20463;-78
2022/08/08 03:33:17;;;;;;;4.93;3.57;;;;;;;;;;5095497;28;20450;-78
2022/08/08 03:35:45;;;;;;;4.27;3.87;;;;;;;;;;5091429;28;20888;-79
2022/08/08 03:38:13;;;;;;;5.10;3.97;;;;;;;;;;5091949;28;20432;-78
2022/08/08 03:40:42;;;;;;;4.30;3.90;;;;;;;;;;5092138;28;20833;-78
2022/08/08 03:43:11;;;;;;;4.80;3.70;;;;;;;;;;5092623;28;20443;-77
2022/08/08 03:45:40;;;;;;;4.93;3.70;;;;;;;;;;5093705;28;20447;-80
2022/08/08 03:48:08;;;;;;;5.00;4.50;;;;;;;;;;5093573;28;20521;-81
2022/08/08 03:50:35;;;;;;;4.47;4.00;;;;;;;;;;5092283;28;20443;-78
2022/08/08 03:53:06;;;;;;;4.80;4.10;;;;;;;;;;5095533;28;20444;-79
2022/08/08 03:55:33;;;;;;;4.23;3.83;;;;;;;;;;5094916;28;20444;-79
2022/08/08 03:58:02;;;;;;;3.80;3.50;;;;;;;;;;5090791;28;20451;-80
2022/08/08 04:00:29;;;;;;;4.93;4.20;;;;;;;;;;5091484;28;20835;-78
2022/08/08 04:02:58;;;;;;;7.83;4.60;;;;;;;;;;5092532;28;20534;-78
2022/08/08 04:05:26;;;;;;;5.30;4.40;;;;;;;;;;5092984;28;20526;-79
2022/08/08 04:07:53;;;;;;;4.97;4.50;;;;;;;;;;5093211;28;20891;-81
2022/08/08 04:10:20;;;;;;;8.83;4.40;;;;;;;;;;5093379;28;20449;-78
2022/08/08 04:12:47;;;;;;;5.63;4.30;;;;;;;;;;5093207;28;20470;-78
2022/08/08 04:15:16;;;;;;;4.40;3.93;;;;;;;;;;5095212;28;20447;-80
2022/08/08 04:17:43;;;;;;;5.87;4.00;;;;;;;;;;5094300;28;20974;-77
2022/08/08 04:20:11;;;;;;;4.40;3.93;;;;;;;;;;5090458;28;20476;-78
2022/08/08 04:22:38;;;;;;;5.07;3.83;;;;;;;;;;5091155;28;20435;-81
2022/08/08 04:25:06;;;;;;;4.70;4.30;;;;;;;;;;5091911;28;20833;-79
2022/08/08 04:27:36;;;;;;;4.33;3.93;;;;;;;;;;5090972;28;20542;-79
2022/08/08 04:30:04;;;;;;;6.73;4.40;;;;;;;;;;5092557;28;20534;-79
2022/08/08 04:32:33;;;;;;;8.43;4.70;;;;;;;;;;5091852;28;20482;-77
2022/08/08 04:35:00;;;;;;;5.17;4.30;;;;;;;;;;5093004;28;20814;-77
2022/08/08 04:37:27;;;;;;;4.47;4.00;;;;;;;;;;5094635;28;20481;-79
2022/08/08 04:39:55;;;;;;;6.23;4.27;;;;;;;;;;5093954;28;20455;-79
2022/08/08 04:42:24;;;;;;;4.93;4.30;;;;;;;;;;5090213;28;20439;-80
2022/08/08 04:44:51;;;;;;;5.03;4.57;;;;;;;;;;5090527;28;20435;-80
2022/08/08 04:47:18;;;;;;;5.13;4.63;;;;;;;;;;5091602;28;20467;-79
2022/08/08 04:49:47;;;;;;;6.40;4.77;;;;;;;;;;5092081;28;20439;-81
2022/08/08 04:52:14;;;;;;;4.53;4.13;;;;;;;;;;5092386;28;20789;-77
2022/08/08 04:54:41;;;;;;;10.73;5.13;;;;;;;;;;5092172;28;20526;-80
2022/08/08 04:57:09;;;;;;;7.73;5.00;;;;;;;;;;5091991;28;20479;-80
2022/08/08 04:59:36;;;;;;;8.37;4.90;;;;;;;;;;5093951;28;20811;-80
2022/08/08 05:02:03;;;;;;;5.10;4.60;;;;;;;;;;5093673;28;20830;-80
2022/08/08 05:04:30;;;;;;;6.00;5.40;;;;;;;;;;5089733;28;20440;-79
2022/08/08 05:06:59;;;;;;;6.13;5.33;;;;;;;;;;5089830;28;20454;-79
2022/08/08 05:09:26;;;;;;;6.30;4.67;;;;;;;;;;5091071;28;20563;-81
2022/08/08 05:11:53;;;;;;;5.73;4.50;;;;;;;;;;5091244;28;20444;-80
2022/08/08 05:14:20;;;;;;;6.50;4.53;;;;;;;;;;5091964;28;20419;-80
2022/08/08 05:16:47;;;;;;;5.90;4.90;;;;;;;;;;5091998;28;20438;-81
2022/08/08 05:19:15;;;;;;;7.60;5.37;;;;;;;;;;5091668;28;20417;-80
2022/08/08 05:21:43;;;;;;;5.63;4.97;;;;;;;;;;5093692;28;20476;-81
2022/08/08 05:24:11;;;;;;;5.63;4.60;;;;;;;;;;5092385;28;20462;-78
2022/08/08 05:26:40;;;;;;;5.60;4.87;;;;;;;;;;5089176;28;20471;-79
2022/08/08 05:29:13;;;;;;;8.47;5.80;;;;;;;;;;5089696;28;20422;-78
2022/08/08 05:31:40;;;;;;;10.37;4.77;;;;;;;;;;5091418;28;20448;-79
2022/08/08 05:34:12;;;;;;;7.03;4.80;;;;;;;;;;5091247;28;20430;-82
2022/08/08 05:36:39;;;;;;;5.07;4.30;;;;;;;;;;5091345;28;20456;-81
2022/08/08 05:39:06;;;;;;;6.13;5.53;;;;;;;;;;5091755;28;20451;-78
2022/08/08 05:41:36;;;;;;;8.37;4.80;;;;;;;;;;5091986;28;20453;-78
2022/08/08 05:44:04;;;;;;;7.33;4.73;;;;;;;;;;5092309;28;20454;-79
2022/08/08 05:46:32;;;;;;;5.27;4.77;;;;;;;;;;5091103;28;20437;-79
2022/08/08 05:49:00;;;;;;;6.17;4.80;;;;;;;;;;5088793;28;20419;-82
2022/08/08 05:51:28;;;;;;;6.47;4.43;;;;;;;;;;5089176;28;20793;-79
2022/08/08 05:53:55;;;;;;;10.07;5.27;;;;;;;;;;5090938;28;20955;-81
2022/08/08 05:56:23;;;;;;;5.73;4.93;;;;;;;;;;5091089;28;20440;-86
2022/08/08 05:58:55;;;;;;;8.53;4.30;;;;;;;;;;5091245;28;20444;-81
2022/08/08 06:01:23;;;;;;;6.20;4.47;;;;;;;;;;5091720;28;20454;-82
2022/08/08 06:03:50;;;;;;;5.63;4.57;;;;;;;;;;5090589;28;20443;-79
2022/08/08 06:06:19;;;;;;;9.03;4.50;;;;;;;;;;5093049;28;20463;-78
2022/08/08 06:08:50;;;;;;;5.70;4.70;;;;;;;;;;5097035;28;20435;-80
2022/08/08 06:11:18;;;;;;;5.63;4.07;;;;;;;;;;5092906;28;20423;-76
2022/08/08 06:13:46;;;;;;;6.43;4.33;;;;;;;;;;5093615;28;20912;-77
2022/08/08 06:16:15;;;;;;;6.30;4.13;;;;;;;;;;5095324;28;20470;-80
2022/08/08 06:18:42;;;;;;;5.93;3.67;;;;;;;;;;5095247;28;20450;-77
2022/08/08 06:21:10;;;;;;;5.60;4.77;;;;;;;;;;5095641;28;20483;-77
2022/08/08 06:23:38;;;;;;;6.63;4.83;;;;;;;;;;5094651;28;20516;-79
2022/08/08 06:26:06;;;;;;;6.87;4.17;;;;;;;;;;5095614;28;20489;-76
2022/08/08 06:28:34;;;;;;;7.53;5.00;;;;;;;;;;5097563;28;20534;-77
2022/08/08 06:31:02;;;;;;;7.00;4.30;;;;;;;;;;5096310;28;20454;-76
2022/08/08 06:33:37;;;;;;;8.33;4.73;;;;;;;;;;5093068;28;20453;-80
2022/08/08 06:36:04;;;;;;;4.67;4.17;;;;;;;;;;5093337;28;20461;-79
2022/08/08 06:38:35;;;;;;;6.30;4.83;;;;;;;;;;5093353;28;20823;-79
2022/08/08 06:41:05;;;;;;;5.00;4.40;;;;;;;;;;5095004;28;20478;-76
2022/08/08 06:43:35;;;;;;;8.93;5.27;;;;;;;;;;5095185;28;20461;-79
2022/08/08 06:46:02;;;;;;;10.53;4.57;;;;;;;;;;5095499;28;20445;-80
2022/08/08 06:48:30;;;;;;;5.93;4.70;;;;;;;;;;5095332;28;20445;-80
2022/08/08 06:50:59;;;;;;;4.30;3.77;;;;;;;;;;5097240;28;20849;-77
2022/08/08 06:53:27;;;;;;;6.83;4.63;;;;;;;;;;5097211;28;20545;-77
2022/08/08 06:55:54;;;;;;;7.53;4.93;;;;;;;;;;5092517;28;20941;-77
2022/08/08 06:58:21;;;;;;;4.73;4.13;;;;;;;;;;5092379;28;20437;-79
2022/08/08 07:00:50;;;;;;;6.70;4.37;;;;;;;;;;5094294;28;20485;-79
2022/08/08 07:03:26;;;;;;;6.00;5.30;;;;;;;;;;5093390;28;20435;-77
2022/08/08 07:05:55;;;;;;;6.70;4.57;;;;;;;;;;5094772;28;20447;-78
2022/08/08 07:08:29;;;;;;;5.83;4.70;;;;;;;;;;5095033;28;20439;-78
2022/08/08 07:10:59;;;;;;;6.30;3.83;;;;;;;;;;5094858;28;20466;-78
2022/08/08 07:13:31;;;;;;;4.70;4.20;;;;;;;;;;5096775;28;20545;-79
2022/08/08 07:16:00;;;;;;;8.10;4.07;;;;;;;;;;5096729;28;20924;-76
2022/08/08 07:18:30;;;;;;;4.77;4.00;;;;;;;;;;5091890;28;20450;-78
2022/08/08 07:20:59;;;;;;;9.43;4.33;;;;;;;;;;5091554;28;20471;-78
2022/08/08 07:23:31;;;;;;;6.03;4.20;;;;;;;;;;5093359;28;20443;-76
2022/08/08 07:26:02;;;;;;;7.80;4.13;;;;;;;;;;5093193;28;20475;-76
2022/08/08 07:28:29;;;;;;;9.00;4.97;;;;;;;;;;5093714;28;20804;-78
2022/08/08 07:30:57;;;;;;;5.57;4.17;;;;;;;;;;5094193;28;20874;-75
2022/08/08 07:33:24;;;;;;;5.07;3.83;;;;;;;;;;5093547;28;20450;-78
2022/08/08 07:35:53;;;;;;;4.07;3.37;;;;;;;;;;5095767;28;20534;-76
2022/08/08 07:38:20;;;;;;;5.77;4.10;;;;;;;;;;5095757;28;20439;-75
2022/08/08 07:40:49;;;;;;;7.90;3.83;;;;;;;;;;5091682;28;20424;-77
2022/08/08 07:43:16;;;;;;;4.50;3.60;;;;;;;;;;5089756;28;20464;-78
2022/08/08 07:45:44;;;;;;;7.30;4.00;;;;;;;;;;5092806;28;20458;-78
2022/08/08 07:48:11;;;;;;;4.83;3.70;;;;;;;;;;5093154;28;20593;-76
2022/08/08 07:50:38;;;;;;;5.90;4.40;;;;;;;;;;5093485;28;20431;-76
2022/08/08 07:53:10;;;;;;;7.83;4.17;;;;;;;;;;5094002;28;20992;-76
2022/08/08 07:55:38;;;;;;;6.23;3.77;;;;;;;;;;5093355;28;20543;-76
2022/08/08 07:58:14;;;;;;;10.20;4.47;;;;;;;;;;5095315;28;20467;-75
2022/08/08 08:00:43;;;;;;;5.70;3.90;;;;;;;;;;5095374;28;20549;-76
2022/08/08 08:03:12;;;;;;;6.00;4.27;;;;;;;;;;5091135;28;20471;-77
2022/08/08 08:05:42;;;;;;;4.83;3.60;;;;;;;;;;5091192;28;20440;-76
2022/08/08 08:08:12;;;;;;;6.27;4.17;;;;;;;;;;5092749;28;20546;-76
2022/08/08 08:10:39;;;;;;;5.07;4.10;;;;;;;;;;5092807;28;20928;-76
2022/08/08 08:15:57;;;;;;;3.73;3.33;;;;;;;;;;5092175;28;20427;-76
2022/08/08 08:18:25;;;;;;;8.00;4.47;;;;;;;;;;5093321;28;20955;-75
2022/08/08 08:20:53;;;;;;;6.33;3.83;;;;;;;;;;5095457;28;20549;-76
2022/08/08 08:23:20;;;;;;;5.13;3.73;;;;;;;;;;5094573;28;20447;-75
2022/08/08 08:25:47;;;;;;;5.33;4.13;;;;;;;;;;5090009;28;20565;-77
2022/08/08 08:28:16;;;;;;;4.13;3.73;;;;;;;;;;5091156;28;20471;-75
2022/08/08 08:30:43;;;;;;;7.30;3.80;;;;;;;;;;5091714;28;20443;-77
2022/08/08 08:33:10;;;;;;;7.13;3.40;;;;;;;;;;5092543;28;20853;-77
2022/08/08 08:35:37;;;;;;;3.40;3.10;;;;;;;;;;5092753;28;20531;-76
2022/08/08 08:38:05;;;;;;;4.30;3.10;;;;;;;;;;5092780;28;20466;-76
2022/08/08 08:40:32;;;;;;;6.13;4.07;;;;;;;;;;5093134;28;20457;-76
2022/08/08 08:43:01;;;;;;;4.30;3.13;;;;;;;;;;5094689;28;20828;-76
2022/08/08 08:45:31;;;;;;;6.13;3.67;;;;;;;;;;5094678;28;20443;-76
2022/08/08 08:47:58;;;;;;;3.53;3.23;;;;;;;;;;5089879;28;20551;-76
2022/08/08 08:50:26;;;;;;;6.97;3.90;;;;;;;;;;5088950;28;20428;-76
2022/08/08 08:52:55;;;;;;;3.60;3.30;;;;;;;;;;5090539;28;20714;-76
2022/08/08 08:55:22;;;;;;;4.00;3.37;;;;;;;;;;5092138;28;20451;-77
2022/08/08 08:57:50;;;;;;;5.07;3.33;;;;;;;;;;5092296;28;20566;-77
2022/08/08 09:00:18;;;;;;;4.30;3.17;;;;;;;;;;5092562;28;20807;-76
2022/08/08 09:02:47;;;;;;;6.90;3.50;;;;;;;;;;5092112;28;20478;-76
2022/08/08 09:05:15;;;;;;;2.97;2.63;;;;;;;;;;5094131;28;20496;-76
2022/08/08 09:07:42;;;;;;;3.67;2.97;;;;;;;;;;5094232;28;20549;-76
2022/08/08 09:10:11;;;;;;;3.33;3.00;;;;;;;;;;5089061;28;20772;-75
2022/08/08 09:12:38;;;;;;;2.83;2.63;;;;;;;;;;5089589;28;21435;-76
2022/08/08 09:15:06;;;;;;;5.00;3.10;;;;;;;;;;5071210;28;20536;-76
2022/08/08 09:17:34;;;;;;;7.43;3.33;;;;;;;;;;5071188;28;20468;-77
2022/08/08 09:20:02;;;;;;;5.23;3.20;;;;;;;;;;5070374;28;20454;-76
2022/08/08 09:22:30;;;;;;;4.80;2.80;;;;;;;;;;5072184;28;20962;-76
2022/08/08 09:24:57;;;;;;;6.10;2.77;;;;;;;;;;5075898;28;20616;-76
2022/08/08 09:27:24;;;;;;;3.30;2.70;;;;;;;;;;5094261;28;20463;-76
2022/08/08 09:29:53;;;;;;;3.73;2.90;;;;;;;;;;5094090;28;20795;-77
2022/08/08 09:32:32;;;;;;;3.00;2.70;;;;;;;;;;5083243;28;20465;-76
2022/08/08 09:35:01;;;;;;;4.87;2.50;;;;;;;;;;5088094;28;20435;-76
2022/08/08 09:37:31;;;;;;;2.73;2.30;;;;;;;;;;5091471;28;20463;-76
2022/08/08 09:40:03;;;;;;;3.47;2.93;;;;;;;;;;5090298;28;20524;-77
2022/08/08 09:42:33;;;;;;;3.00;2.17;;;;;;;;;;5089570;28;20566;-77
2022/08/08 09:45:05;;;;;;;5.60;2.40;;;;;;;;;;5092073;28;20531;-77
2022/08/08 09:47:32;;;;;;;3.00;2.47;;;;;;;;;;5090814;28;20471;-76
2022/08/08 09:50:00;;;;;;;4.53;2.40;;;;;;;;;;5093892;28;20443;-76
2022/08/08 09:52:31;;;;;;;5.80;2.20;;;;;;;;;;5093854;28;21024;-77
2022/08/08 09:54:58;;;;;;;3.70;2.40;;;;;;;;;;5089406;28;20428;-76
2022/08/08 09:57:30;;;;;;;3.77;2.30;;;;;;;;;;5089356;28;20452;-76
2022/08/08 10:00:00;;;;;;;3.67;2.60;;;;;;;;;;5091008;28;20936;-76
2022/08/08 10:02:33;;;;;;;3.00;2.40;;;;;;;;;;5091381;28;20479;-76
2022/08/08 10:05:03;;;;;;;3.37;2.33;;;;;;;;;;5091732;28;20496;-77
2022/08/08 10:07:32;;;;;;;2.70;2.37;;;;;;;;;;5091728;28;20538;-76
2022/08/08 10:09:59;;;;;;;2.80;2.37;;;;;;;;;;5091740;28;20487;-76
2022/08/08 10:12:34;;;;;;;3.30;2.63;;;;;;;;;;5093621;28;20435;-75
2022/08/08 10:15:02;;;;;;;5.80;2.60;;;;;;;;;;5092930;28;20439;-76
2022/08/08 10:17:31;;;;;;;3.53;2.60;;;;;;;;;;5088806;28;20470;-77
2022/08/08 10:19:59;;;;;;;3.03;2.77;;;;;;;;;;5088004;28;20933;-77
2022/08/08 10:22:26;;;;;;;3.10;2.80;;;;;;;;;;5089233;28;20573;-76
2022/08/08 10:24:59;;;;;;;5.03;3.10;;;;;;;;;;5090718;28;20493;-77
2022/08/08 10:27:28;;;;;;;3.50;2.13;;;;;;;;;;5091137;28;20459;-78
2022/08/08 10:29:59;;;;;;;3.83;2.90;;;;;;;;;;5091400;28;20443;-77
2022/08/08 10:35:12;;;;;;;4.03;2.87;;;;;;;;;;5092362;28;20415;-75
2022/08/08 10:37:42;;;;;;;2.63;2.43;;;;;;;;;;5092286;28;20481;-77
2022/08/08 10:40:15;;;;;;;4.60;3.13;;;;;;;;;;5088817;28;20439;-76
2022/08/08 10:42:43;;;;;;;3.37;2.50;;;;;;;;;;5089407;28;20600;-75
2022/08/08 10:45:12;;;;;;;2.70;2.40;;;;;;;;;;5090753;28;20443;-76
2022/08/08 10:47:39;;;;;;;2.77;2.50;;;;;;;;;;5090710;28;20467;-76
2022/08/08 10:50:07;;;;;;;5.17;3.37;;;;;;;;;;5091161;28;20866;-75
2022/08/08 10:52:35;;;;;;;3.13;2.63;;;;;;;;;;5090900;28;20785;-77
2022/08/08 10:55:04;;;;;;;3.00;2.57;;;;;;;;;;5094077;28;20956;-77
2022/08/08 10:57:36;;;;;;;2.60;2.37;;;;;;;;;;5096770;28;20546;-76
2022/08/08 11:00:03;;;;;;;3.30;2.47;;;;;;;;;;5095749;28;20438;-76
2022/08/08 11:02:31;;;;;;;2.50;2.30;;;;;;;;;;5092352;28;20475;-76
2022/08/08 11:04:59;;;;;;;2.50;2.30;;;;;;;;;;5091567;28;21027;-77
2022/08/08 11:07:27;;;;;;;2.30;2.10;;;;;;;;;;5094326;28;20831;-78
2022/08/08 11:09:55;;;;;;;3.13;2.20;;;;;;;;;;5094180;28;20530;-76
2022/08/08 11:12:22;;;;;;;5.00;2.33;;;;;;;;;;5092925;28;20443;-77
2022/08/08 11:14:54;;;;;;;4.40;2.60;;;;;;;;;;5095042;28;20483;-74
2022/08/08 11:17:23;;;;;;;2.63;2.40;;;;;;;;;;5093656;28;20820;-76
2022/08/08 11:19:51;;;;;;;2.20;2.00;;;;;;;;;;5095102;28;20805;-76
2022/08/08 11:22:20;;;;;;;2.93;2.60;;;;;;;;;;5095093;28;20561;-77
2022/08/08 11:24:47;;;;;;;2.53;2.33;;;;;;;;;;5091538;28;21078;-76
2022/08/08 11:27:16;;;;;;;2.60;2.40;;;;;;;;;;5092501;28;20462;-76
2022/08/08 11:29:43;;;;;;;3.43;2.50;;;;;;;;;;5094234;28;20521;-76
2022/08/08 11:32:13;;;;;;;3.33;2.63;;;;;;;;;;5089631;28;20455;-75
2022/08/08 11:34:42;;;;;;;2.33;2.13;;;;;;;;;;5090359;28;20439;-77
2022/08/08 11:37:10;;;;;;;2.60;2.10;;;;;;;;;;5090720;28;20459;-79
2022/08/08 11:39:38;;;;;;;2.77;2.53;;;;;;;;;;5090111;28;20459;-77
2022/08/08 11:42:05;;;;;;;4.43;2.50;;;;;;;;;;5087925;28;20816;-78
2022/08/08 11:44:33;;;;;;;6.60;2.73;;;;;;;;;;5088454;28;20459;-79
2022/08/08 11:47:00;;;;;;;4.13;2.90;;;;;;;;;;5090960;28;20468;-77
2022/08/08 11:49:29;;;;;;;4.40;2.80;;;;;;;;;;5092032;28;20439;-77
2022/08/08 11:51:56;;;;;;;3.00;2.70;;;;;;;;;;5092677;28;20765;-77
2022/08/08 11:54:32;;;;;;;5.90;2.63;;;;;;;;;;5093969;28;20802;-77
2022/08/08 11:57:09;;;;;;;3.63;2.60;;;;;;;;;;5092629;28;20960;-76
2022/08/08 11:59:37;;;;;;;4.47;3.00;;;;;;;;;;5094373;28;20435;-76
2022/08/08 12:02:05;;;;;;;3.50;3.00;;;;;;;;;;5093219;28;20439;-76
2022/08/08 12:04:33;;;;;;;5.40;3.17;;;;;;;;;;5089744;28;20812;-78
2022/08/08 12:07:04;;;;;;;3.67;2.73;;;;;;;;;;5091367;28;20455;-78
2022/08/08 12:09:31;;;;;;;3.43;2.67;;;;;;;;;;5093219;28;20439;-76
2022/08/08 12:11:59;;;;;;;3.33;3.03;;;;;;;;;;5093053;28;20447;-77
2022/08/08 12:14:27;;;;;;;5.10;3.00;;;;;;;;;;5093131;28;20816;-77
2022/08/08 12:16:55;;;;;;;4.33;2.83;;;;;;;;;;5092210;28;20466;-76
2022/08/08 12:19:24;;;;;;;3.70;2.70;;;;;;;;;;5092383;28;20546;-77
2022/08/08 12:21:53;;;;;;;3.80;3.17;;;;;;;;;;5095511;28;20538;-77
2022/08/08 12:24:22;;;;;;;3.23;2.60;;;;;;;;;;5093094;28;20964;-77
2022/08/08 12:26:50;;;;;;;4.10;2.73;;;;;;;;;;5090463;28;20455;-76
2022/08/08 12:29:20;;;;;;;3.50;2.60;;;;;;;;;;5089542;28;20524;-77
2022/08/08 12:31:48;;;;;;;4.10;2.97;;;;;;;;;;5092837;28;20443;-79
2022/08/08 12:34:15;;;;;;;3.47;2.90;;;;;;;;;;5092703;28;20450;-77
2022/08/08 12:36:43;;;;;;;4.67;2.90;;;;;;;;;;5092693;28;20460;-77
2022/08/08 12:39:12;;;;;;;5.50;3.27;;;;;;;;;;5093020;28;20936;-77
2022/08/08 12:41:39;;;;;;;5.13;2.90;;;;;;;;;;5093009;28;20538;-77
2022/08/08 12:44:07;;;;;;;4.00;2.90;;;;;;;;;;5094628;28;20485;-78
2022/08/08 12:46:35;;;;;;;3.23;2.70;;;;;;;;;;5093780;28;20984;-77
2022/08/08 12:49:03;;;;;;;4.10;3.30;;;;;;;;;;5088890;28;20435;-77
2022/08/08 12:51:40;;;;;;;3.10;2.80;;;;;;;;;;5089045;28;20428;-78
2022/08/08 12:54:08;;;;;;;3.13;2.83;;;;;;;;;;5072349;28;20821;-77
2022/08/08 12:56:38;;;;;;;3.30;2.83;;;;;;;;;;5069581;28;20468;-77
2022/08/08 12:59:14;;;;;;;6.30;3.00;;;;;;;;;;5071463;28;20448;-77
2022/08/08 13:01:42;;;;;;;3.57;2.93;;;;;;;;;;5070723;28;20435;-77
2022/08/08 13:04:16;;;;;;;5.77;2.83;;;;;;;;;;5071890;28;20571;-77
2022/08/08 13:06:54;;;;;;;4.50;2.70;;;;;;;;;;5087811;28;20463;-77
2022/08/08 13:09:30;;;;;;;3.70;2.80;;;;;;;;;;5090415;28;20427;-78
2022/08/08 13:11:58;;;;;;;6.43;3.30;;;;;;;;;;5091464;28;20496;-77
2022/08/08 13:14:37;;;;;;;4.00;3.60;;;;;;;;;;5091788;28;20869;-78
2022/08/08 13:17:05;;;;;;;8.93;3.23;;;;;;;;;;5091759;28;20469;-76
2022/08/08 13:19:32;;;;;;;2.87;2.57;;;;;;;;;;5091087;28;20485;-80
2022/08/08 13:22:00;;;;;;;2.90;2.70;;;;;;;;;;5092402;28;20475;-77
2022/08/08 13:24:28;;;;;;;4.60;3.50;;;;;;;;;;5093798;28;20839;-77
2022/08/08 13:27:06;;;;;;;2.80;2.50;;;;;;;;;;5093249;28;20459;-78
2022/08/08 13:29:34;;;;;;;3.33;2.50;;;;;;;;;;5089565;28;20431;-79
2022/08/08 13:32:03;;;;;;;4.83;3.20;;;;;;;;;;5090017;28;20903;-78
2022/08/08 13:34:30;;;;;;;4.07;3.30;;;;;;;;;;5092098;28;20489;-77
2022/08/08 13:36:57;;;;;;;2.80;2.43;;;;;;;;;;5091909;28;20465;-78
2022/08/08 13:39:25;;;;;;;4.13;2.83;;;;;;;;;;5092168;28;20443;-79
2022/08/08 13:41:54;;;;;;;2.67;2.40;;;;;;;;;;5093406;28;20471;-78
2022/08/08 13:44:22;;;;;;;3.57;2.80;;;;;;;;;;5092483;28;21006;-80
2022/08/08 13:46:54;;;;;;;3.47;2.73;;;;;;;;;;5094249;28;20464;-78
2022/08/08 13:49:22;;;;;;;4.63;3.00;;;;;;;;;;5093323;28;20444;-78
2022/08/08 13:51:57;;;;;;;4.00;3.03;;;;;;;;;;5089268;28;20853;-78
2022/08/08 13:54:26;;;;;;;2.97;2.67;;;;;;;;;;5089676;28;20798;-77
2022/08/08 13:57:02;;;;;;;4.03;2.90;;;;;;;;;;5090253;28;20549;-77
2022/08/08 13:59:32;;;;;;;4.03;3.30;;;;;;;;;;5091520;28;20451;-78
2022/08/08 14:01:59;;;;;;;4.97;2.60;;;;;;;;;;5091637;28;20439;-79
2022/08/08 14:04:26;;;;;;;3.83;2.97;;;;;;;;;;5091869;28;20823;-79
2022/08/08 14:06:58;;;;;;;4.40;2.80;;;;;;;;;;5092295;28;20475;-79
2022/08/08 14:09:30;;;;;;;3.80;2.67;;;;;;;;;;5093816;28;20443;-79
2022/08/08 14:11:58;;;;;;;2.77;2.57;;;;;;;;;;5092252;28;20431;-78
2022/08/08 14:14:36;;;;;;;3.30;2.60;;;;;;;;;;5087921;28;20808;-75
2022/08/08 14:17:04;;;;;;;4.43;2.90;;;;;;;;;;5089876;28;20459;-75
2022/08/08 14:19:32;;;;;;;3.30;2.77;;;;;;;;;;5091343;28;20795;-76
2022/08/08 14:21:59;;;;;;;6.30;2.70;;;;;;;;;;5091120;28;20444;-76
2022/08/08 14:24:34;;;;;;;2.97;2.67;;;;;;;;;;5090946;28;20510;-79
2022/08/08 14:27:01;;;;;;;4.17;3.20;;;;;;;;;;5092164;28;20475;-76
2022/08/08 14:29:28;;;;;;;3.90;3.20;;;;;;;;;;5096168;28;20968;-75
2022/08/08 14:31:57;;;;;;;3.10;2.80;;;;;;;;;;5097569;28;20795;-75
2022/08/08 14:34:24;;;;;;;3.33;3.03;;;;;;;;;;5095660;28;20982;-80
2022/08/08 14:36:51;;;;;;;3.23;2.93;;;;;;;;;;5092802;28;20458;-79
2022/08/08 14:39:19;;;;;;;3.80;2.73;;;;;;;;;;5093520;28;20940;-79
2022/08/08 14:41:47;;;;;;;3.90;2.93;;;;;;;;;;5095186;28;20446;-83
2022/08/08 14:44:14;;;;;;;3.37;2.73;;;;;;;;;;5094832;28;20835;-77
2022/08/08 14:46:41;;;;;;;3.83;3.00;;;;;;;;;;5095036;28;20466;-78
2022/08/08 14:49:13;;;;;;;4.03;3.27;;;;;;;;;;5095498;28;20453;-77
2022/08/08 14:51:41;;;;;;;3.53;3.00;;;;;;;;;;5094772;28;20455;-77
2022/08/08 14:54:09;;;;;;;3.63;3.30;;;;;;;;;;5097195;28;20856;-76
2022/08/08 14:56:38;;;;;;;4.87;3.10;;;;;;;;;;5094205;28;20455;-78
2022/08/08 14:59:05;;;;;;;4.83;3.33;;;;;;;;;;5092597;28;20447;-76
2022/08/08 15:01:33;;;;;;;3.80;3.17;;;;;;;;;;5093001;28;20538;-76
2022/08/08 15:04:01;;;;;;;5.00;2.70;;;;;;;;;;5093499;28;20839;-76
2022/08/08 15:06:29;;;;;;;3.57;2.63;;;;;;;;;;5094740;28;20895;-75